Time;durP1;ratioP1;P1;durP2;ratioP2;P2;SDS_P1;SDS_P2;PMS_P1;PMS_P2;Temp;Humidity;BMP_temperature;BMP_pressure;BME280_temperature;BME280_humidity;BME280_pressure;Samples;Min_cycle;Max_cycle;Signal;HPM_P1;HPM_P2
2022/03/04 00:00:13;;;;;;;;;48.75;38.00;;;;;12.54;61.05;101304.38;4975227;28;45651;-85
2022/03/04 00:02:38;;;;;;;;;49.00;36.75;;;;;12.72;61.33;101345.50;4975228;28;45344;-86
2022/03/04 00:05:04;;;;;;;;;47.00;37.50;;;;;12.84;61.25;101345.81;4974968;28;45521;-85
2022/03/04 00:07:30;;;;;;;;;40.25;35.75;;;;;12.90;61.00;101368.78;4975843;28;45692;-85
2022/03/04 00:09:55;;;;;;;;;47.75;37.50;;;;;12.74;61.27;101327.59;4975865;28;45600;-85
2022/03/04 00:12:20;;;;;;;;;49.75;38.00;;;;;12.68;61.03;101320.69;4975371;28;46559;-85
2022/03/04 00:14:46;;;;;;;;;44.25;36.75;;;;;12.76;60.90;101331.03;4975032;28;45347;-85
2022/03/04 00:17:12;;;;;;;;;39.75;34.50;;;;;12.97;61.54;101359.56;4974703;28;45785;-85
2022/03/04 00:19:37;;;;;;;;;41.25;35.75;;;;;12.55;60.76;101282.03;4958236;28;45526;-85
2022/03/04 00:22:03;;;;;;;;;40.00;36.75;;;;;12.93;61.11;101339.22;4975366;28;45484;-85
2022/03/04 00:24:28;;;;;;;;;38.00;34.00;;;;;13.04;60.91;101354.78;4975357;28;45460;-85
2022/03/04 00:26:53;;;;;;;;;42.75;35.00;;;;;12.81;60.69;101319.22;4975306;28;45298;-85
2022/03/04 00:29:19;;;;;;;;;44.75;38.50;;;;;12.71;61.07;101295.59;4975394;28;45475;-85
2022/03/04 00:31:44;;;;;;;;;44.50;37.50;;;;;13.07;60.98;101349.31;4975496;28;46112;-85
2022/03/04 00:34:11;;;;;;;;;48.75;37.25;;;;;12.75;61.23;101299.91;4974501;28;45490;-85
2022/03/04 00:36:38;;;;;;;;;42.75;38.00;;;;;13.04;61.13;101346.75;4957481;28;45491;-85
2022/03/04 00:39:10;;;;;;;;;46.75;38.00;;;;;13.08;61.00;101357.25;4975214;28;45537;-85
2022/03/04 00:41:35;;;;;;;;;46.00;38.25;;;;;12.72;61.02;101298.22;4975011;28;46145;-84
2022/03/04 00:44:00;;;;;;;;;45.25;37.25;;;;;13.08;61.11;101364.41;4974314;28;45449;-85
2022/03/04 00:46:26;;;;;;;;;40.00;35.25;;;;;13.07;61.04;101358.22;4974545;28;45845;-85
2022/03/04 00:48:52;;;;;;;;;44.50;38.50;;;;;13.08;60.98;101357.25;4975226;28;45294;-85
2022/03/04 00:51:17;;;;;;;;;46.00;36.75;;;;;12.71;61.19;101290.25;4974695;28;45376;-84
2022/03/04 00:53:43;;;;;;;;;48.25;40.75;;;;;13.07;61.12;101354.66;4977576;28;45321;-85
2022/03/04 00:56:10;;;;;;;;;48.75;38.00;;;;;12.77;61.10;101298.03;4976492;28;45370;-85
2022/03/04 00:58:37;;;;;;;;;41.25;34.50;;;;;12.67;61.31;101284.19;4978390;28;45330;-85
2022/03/04 01:01:03;;;;;;;;;47.25;39.25;;;;;12.89;61.40;101327.75;4960159;28;47069;-85
2022/03/04 01:03:29;;;;;;;;;38.75;36.00;;;;;12.90;61.32;101326.00;4977818;28;45394;-85
2022/03/04 01:05:54;;;;;;;;;46.00;37.50;;;;;12.86;61.02;101330.59;4978001;28;45785;-85
2022/03/04 01:08:19;;;;;;;;;40.25;35.25;;;;;13.10;60.76;101355.38;4977626;28;45555;-85
2022/03/04 01:10:45;;;;;;;;;37.75;35.25;;;;;12.61;60.86;101287.97;4977508;28;46127;-85
2022/03/04 01:13:11;;;;;;;;;43.50;37.50;;;;;13.02;60.89;101352.19;4977142;28;45456;-85
2022/03/04 01:15:36;;;;;;;;;40.00;35.00;;;;;12.87;60.92;101328.78;4960277;28;45344;-85
2022/03/04 01:18:02;;;;;;;;;43.50;34.75;;;;;13.07;60.87;101365.38;4977920;28;45647;-85
2022/03/04 01:20:29;;;;;;;;;42.25;37.75;;;;;12.80;60.68;101317.47;4977272;28;45358;-85
2022/03/04 01:22:54;;;;;;;;;43.50;35.50;;;;;13.05;60.69;101357.41;4977308;28;45427;-85
2022/03/04 01:25:19;;;;;;;;;37.00;33.50;;;;;12.70;60.57;101305.44;4976773;28;45332;-85
2022/03/04 01:27:45;;;;;;;;;34.00;32.50;;;;;12.66;60.60;101301.16;4977837;28;45450;-85
2022/03/04 01:30:10;;;;;;;;;31.75;30.50;;;;;12.64;60.87;101306.59;4959661;28;48212;-85
2022/03/04 01:32:36;;;;;;;;;33.00;31.25;;;;;12.86;61.21;101343.97;4977018;28;45723;-85
2022/03/04 01:35:03;;;;;;;;;36.00;31.00;;;;;12.99;60.80;101363.00;5014994;28;45443;-84
2022/03/04 01:37:28;;;;;;;;;44.25;34.50;;;;;12.76;60.81;101325.69;5060507;28;45322;-84
2022/03/04 01:39:53;;;;;;;;;44.25;37.50;;;;;12.81;60.91;101347.78;5059892;28;45511;-84
2022/03/04 01:42:19;;;;;;;;;39.75;35.25;;;;;12.93;61.23;101363.28;5041449;28;45533;-85
2022/03/04 01:44:45;;;;;;;;;39.50;35.75;;;;;12.94;61.17;101367.69;5060152;28;45266;-85
2022/03/04 01:47:11;;;;;;;;;41.00;34.75;;;;;12.82;61.03;101342.34;5042284;28;45488;-85
2022/03/04 01:49:39;;;;;;;;;42.75;37.25;;;;;12.94;61.48;101356.13;5059746;28;45369;-85
2022/03/04 01:52:04;;;;;;;;;37.25;33.25;;;;;12.85;60.74;101342.25;5059558;28;45488;-85
2022/03/04 01:54:29;;;;;;;;;48.50;39.25;;;;;12.86;61.14;101340.44;5041434;28;45569;-85
2022/03/04 01:56:55;;;;;;;;;39.25;33.75;;;;;12.50;60.90;101276.88;5060212;28;45512;-85
2022/03/04 01:59:20;;;;;;;;;45.50;34.75;;;;;12.94;61.17;101340.09;5059700;28;45708;-85
2022/03/04 02:01:46;;;;;;;;;39.50;35.25;;;;;12.78;60.86;101319.38;5041634;28;45464;-85
2022/03/04 02:04:11;;;;;;;;;43.00;37.25;;;;;12.54;60.76;101280.31;5058423;28;45428;-85
2022/03/04 02:06:37;;;;;;;;;44.75;37.50;;;;;12.71;61.26;101301.81;5060054;28;45278;-85
2022/03/04 02:09:03;;;;;;;;;39.50;35.00;;;;;12.61;61.08;101298.69;5059364;28;45498;-85
2022/03/04 02:11:29;;;;;;;;;46.75;38.00;;;;;12.56;61.16;101298.00;5059557;28;45482;-85
2022/03/04 02:13:55;;;;;;;;;39.75;36.00;;;;;12.84;61.30;101342.28;5058999;28;45520;-85
2022/03/04 02:16:34;;;;;;;;;42.50;36.50;;;;;12.82;61.36;101341.50;5059303;28;45501;-85
2022/03/04 02:19:00;;;;;;;;;40.25;34.50;;;;;12.76;61.04;101334.59;5059436;28;45303;-84
2022/03/04 02:21:26;;;;;;;;;37.50;34.75;;;;;12.36;60.97;101266.81;5057859;28;45985;-85
2022/03/04 02:23:52;;;;;;;;;40.75;34.25;;;;;12.53;60.87;101302.66;5059591;28;45465;-85
2022/03/04 02:26:17;;;;;;;;;40.50;33.75;;;;;12.75;60.89;101353.38;5059649;28;45581;-85
2022/03/04 02:28:44;;;;;;;;;33.67;30.00;;;;;12.72;60.97;101346.38;5041025;28;47708;-84
2022/03/04 02:31:16;;;;;;;;;42.00;32.00;;;;;12.68;60.96;101342.09;5040720;28;45883;-85
2022/03/04 02:33:42;;;;;;;;;34.00;30.67;;;;;12.53;60.75;101321.34;5059044;28;45524;-84
2022/03/04 02:36:07;;;;;;;;;36.50;35.00;;;;;12.32;61.05;101283.03;5005055;28;45414;-84
2022/03/04 02:38:33;;;;;;;;;38.00;32.50;;;;;12.25;61.11;101282.41;4976190;28;46189;-84
2022/03/04 02:40:58;;;;;;;;;45.75;34.75;;;;;12.45;61.12;101324.34;5061254;28;45425;-84
2022/03/04 02:43:23;;;;;;;;;37.00;31.50;;;;;12.24;61.14;101302.94;5079286;28;45488;-85
2022/03/04 02:45:49;;;;;;;;;43.75;35.75;;;;;12.31;61.23;101318.69;5079678;28;45286;-85
2022/03/04 02:48:14;;;;;;;;;38.00;32.00;;;;;12.34;61.73;101327.47;5079413;28;45600;-84
2022/03/04 02:50:40;;;;;;;;;37.75;31.00;;;;;12.40;61.55;101340.56;5060264;28;45399;-85
2022/03/04 02:53:05;;;;;;;;;38.75;32.50;;;;;12.38;61.63;101342.44;5078545;28;45409;-85
2022/03/04 02:55:31;;;;;;;;;38.25;31.00;;;;;12.35;61.37;101344.38;5078639;28;45523;-85
2022/03/04 02:57:56;;;;;;;;;35.50;31.50;;;;;12.07;61.31;101307.22;5060949;28;47376;-85
2022/03/04 03:00:21;;;;;;;;;41.50;34.50;;;;;12.23;61.73;101337.75;4976564;28;45446;-85
2022/03/04 03:02:47;;;;;;;;;38.00;32.75;;;;;12.12;61.81;101322.13;4976293;28;45411;-84
2022/03/04 03:05:13;;;;;;;;;37.75;33.00;;;;;11.92;62.14;101285.56;4976859;28;45594;-85
2022/03/04 03:07:39;;;;;;;;;43.25;34.00;;;;;12.24;62.10;101345.69;5043198;28;48082;-85
2022/03/04 03:10:05;;;;;;;;;35.25;30.75;;;;;11.82;62.24;101273.44;4976414;28;45295;-85
2022/03/04 03:12:31;;;;;;;;;39.00;33.00;;;;;12.23;62.52;101343.09;4976513;28;45340;-85
2022/03/04 03:14:56;;;;;;;;;43.00;34.50;;;;;12.21;62.38;101348.47;4975983;28;45462;-84
2022/03/04 03:17:21;;;;;;;;;41.00;34.00;;;;;11.88;62.53;101305.31;4976105;28;45441;-85
2022/03/04 03:19:47;;;;;;;;;38.00;32.75;;;;;11.89;62.49;101304.34;4976015;28;45340;-85
2022/03/04 03:22:14;;;;;;;;;45.00;37.75;;;;;11.77;62.70;101284.31;4976461;28;45483;-85
2022/03/04 03:24:40;;;;;;;;;40.25;32.75;;;;;12.00;62.59;101320.81;4976398;28;45429;-85
2022/03/04 03:27:06;;;;;;;;;35.75;32.50;;;;;11.58;62.61;101254.81;4975887;28;46605;-85
2022/03/04 03:29:31;;;;;;;;;36.50;32.00;;;;;12.15;62.62;101351.41;5043610;28;45781;-85
2022/03/04 03:31:56;;;;;;;;;40.00;31.50;;;;;12.03;62.63;101331.41;4991990;28;45509;-85
2022/03/04 03:34:22;;;;;;;;;46.75;36.50;;;;;11.98;62.69;101322.69;4995805;28;45365;-84
2022/03/04 03:36:47;;;;;;;;;43.75;35.75;;;;;11.94;62.84;101320.19;5071287;28;45410;-85
2022/03/04 03:39:13;;;;;;;;;44.75;35.50;;;;;11.99;62.86;101328.94;5078421;28;45851;-85
2022/03/04 03:41:38;;;;;;;;;45.50;33.00;;;;;12.15;62.72;101354.09;5078426;28;45408;-84
2022/03/04 03:44:03;;;;;;;;;37.25;32.75;;;;;11.90;62.70;101321.28;5078166;28;45651;-84
2022/03/04 03:46:29;;;;;;;;;41.00;34.50;;;;;11.81;62.90;101299.28;5078105;28;45402;-84
2022/03/04 03:48:54;;;;;;;;;42.00;34.25;;;;;11.66;62.89;101280.34;5078292;28;45786;-85
2022/03/04 03:51:20;;;;;;;;;38.75;34.00;;;;;12.15;62.80;101353.19;5060161;28;45366;-84
2022/03/04 03:53:45;;;;;;;;;43.25;35.50;;;;;12.16;62.90;101352.28;5078561;28;45582;-85
2022/03/04 03:56:11;;;;;;;;;38.25;33.00;;;;;11.64;62.66;101269.75;5077955;28;46357;-85
2022/03/04 03:58:36;;;;;;;;;43.75;35.00;;;;;12.17;62.82;101357.53;5078246;28;45338;-85
2022/03/04 04:01:02;;;;;;;;;45.25;36.25;;;;;11.91;62.82;101315.00;5028985;28;45900;-85
2022/03/04 04:03:29;;;;;;;;;47.50;37.25;;;;;11.84;62.74;101311.66;4976673;28;45668;-85
2022/03/04 04:05:55;;;;;;;;;42.00;35.00;;;;;11.86;62.65;101314.28;4975429;28;45409;-85
2022/03/04 04:08:20;;;;;;;;;41.00;34.00;;;;;12.01;63.01;101332.38;4975329;28;45424;-85
2022/03/04 04:10:46;;;;;;;;;38.50;33.50;;;;;12.13;62.84;101350.59;4974914;28;45335;-85
2022/03/04 04:13:11;;;;;;;;;43.75;33.75;;;;;11.89;62.48;101315.03;5042283;28;45429;-85
2022/03/04 04:15:37;;;;;;;;;35.50;32.75;;;;;12.20;62.61;101362.78;4975261;28;45642;-85
2022/03/04 04:18:02;;;;;;;;;43.50;34.75;;;;;11.86;62.82;101301.78;4975014;28;45373;-85
2022/03/04 04:20:28;;;;;;;;;39.75;32.75;;;;;12.12;62.87;101340.84;4975501;28;45177;-85
2022/03/04 04:22:53;;;;;;;;;45.25;37.50;;;;;12.22;62.46;101360.94;4975775;28;45469;-85
2022/03/04 04:25:18;;;;;;;;;40.25;34.50;;;;;12.00;62.56;101314.63;4975447;28;45454;-84
2022/03/04 04:27:44;;;;;;;;;47.00;36.00;;;;;12.23;62.80;101357.31;4974159;28;45380;-85
2022/03/04 04:30:10;;;;;;;;;45.75;36.25;;;;;12.15;62.59;101343.41;4979599;28;45565;-84
2022/03/04 04:32:35;;;;;;;;;41.25;35.50;;;;;12.11;62.62;101333.75;4995010;28;45445;-84
2022/03/04 04:35:00;;;;;;;;;39.75;34.50;;;;;12.06;62.89;101327.75;5008516;28;51131;-84
2022/03/04 04:37:26;;;;;;;;;44.00;35.75;;;;;12.06;62.87;101322.41;5059896;28;45398;-84
2022/03/04 04:39:51;;;;;;;;;47.75;39.00;;;;;12.24;62.44;101363.50;5077914;28;45470;-84
2022/03/04 04:42:16;;;;;;;;;45.75;37.50;;;;;12.25;62.63;101378.63;5059655;28;45257;-84
2022/03/04 04:44:42;;;;;;;;;43.50;35.00;;;;;12.08;62.67;101341.03;5077571;28;45335;-84
2022/03/04 04:47:07;;;;;;;;;48.00;39.50;;;;;12.28;62.57;101370.47;5059202;28;45402;-84
2022/03/04 04:49:36;;;;;;;;;44.00;35.50;;;;;12.30;62.79;101376.63;5077654;28;45365;-84
2022/03/04 04:52:03;;;;;;;;;41.75;35.00;;;;;12.31;62.61;101382.84;5077489;28;45335;-84
2022/03/04 04:54:29;;;;;;;;;44.50;36.75;;;;;12.11;62.85;101347.13;5077596;28;45286;-84
2022/03/04 04:56:54;;;;;;;;;43.75;36.00;;;;;12.17;63.02;101356.69;4982311;28;45380;-84
2022/03/04 04:59:19;;;;;;;;;36.50;32.50;;;;;12.00;62.64;101315.47;4975311;28;45423;-84
2022/03/04 05:01:45;;;;;;;;;48.50;38.25;;;;;12.29;62.67;101360.66;4983877;28;45318;-84
2022/03/04 05:04:10;;;;;;;;;44.50;35.00;;;;;12.36;62.77;101381.75;4973664;28;56079;-84
2022/03/04 05:06:35;;;;;;;;;45.75;37.50;;;;;12.13;62.76;101345.25;4974217;28;45348;-84
2022/03/04 05:09:01;;;;;;;;;42.75;36.75;;;;;12.35;62.73;101379.13;4973722;28;45169;-83
2022/03/04 05:11:26;;;;;;;;;44.25;37.50;;;;;12.35;62.82;101384.47;4974324;28;45425;-84
2022/03/04 05:13:52;;;;;;;;;46.00;37.75;;;;;11.92;62.72;101314.06;4973400;28;45629;-84
2022/03/04 05:16:17;;;;;;;;;48.25;37.75;;;;;12.38;62.80;101387.00;4973749;28;45318;-84
2022/03/04 05:18:42;;;;;;;;;44.00;37.25;;;;;12.39;62.81;101383.44;5041722;28;45327;-83
2022/03/04 05:21:08;;;;;;;;;45.75;38.25;;;;;12.18;62.73;101353.97;4973628;28;45576;-84
2022/03/04 05:26:17;;;;;;;;;43.25;37.50;;;;;12.09;62.78;101346.31;4973811;28;45399;-83
2022/03/04 05:28:42;;;;;;;;;39.75;34.75;;;;;12.40;62.95;101396.72;4974215;28;45354;-84
2022/03/04 05:31:07;;;;;;;;;41.50;34.00;;;;;12.40;62.80;101390.50;4973353;28;45424;-83
2022/03/04 05:33:33;;;;;;;;;43.50;36.25;;;;;12.39;62.85;101396.78;4973751;28;45974;-84
2022/03/04 05:35:59;;;;;;;;;45.25;38.25;;;;;12.31;63.14;101390.88;5050567;28;45441;-83
2022/03/04 05:38:25;;;;;;;;;44.75;36.25;;;;;12.06;62.91;101346.44;5062581;28;45366;-83
2022/03/04 05:40:50;;;;;;;;;42.50;36.25;;;;;12.31;62.97;101378.38;5064653;28;45358;-84
2022/03/04 05:43:15;;;;;;;;;44.00;35.75;;;;;12.35;63.18;101381.81;5066477;28;45509;-84
2022/03/04 05:45:41;;;;;;;;;45.75;37.50;;;;;12.42;62.92;101399.34;5076152;27;45408;-84
2022/03/04 05:48:07;;;;;;;;;48.50;38.25;;;;;12.23;63.04;101365.31;5074478;28;45387;-84
2022/03/04 05:50:32;;;;;;;;;40.00;34.25;;;;;12.06;63.33;101333.09;5057818;28;45522;-84
2022/03/04 05:52:58;;;;;;;;;43.75;36.25;;;;;12.30;63.07;101368.63;5079601;28;45659;-83
2022/03/04 05:55:23;;;;;;;;;45.00;34.75;;;;;12.45;63.41;101404.53;5079389;28;45357;-84
2022/03/04 05:57:49;;;;;;;;;47.50;36.25;;;;;12.37;63.31;101383.47;5065265;28;45227;-84
2022/03/04 06:00:14;;;;;;;;;54.50;41.75;;;;;12.29;63.35;101366.00;5071299;28;45389;-84
2022/03/04 06:02:39;;;;;;;;;50.75;43.75;;;;;12.13;62.98;101336.38;5079829;28;46715;-84
2022/03/04 06:05:05;;;;;;;;;49.50;40.00;;;;;12.43;63.07;101383.25;5079553;28;45331;-84
2022/03/04 06:07:33;;;;;;;;;42.50;36.50;;;;;12.45;63.33;101396.53;5079799;28;45257;-84
2022/03/04 06:09:59;;;;;;;;;48.50;37.75;;;;;12.52;63.29;101405.16;5077499;28;45332;-84
2022/03/04 06:12:24;;;;;;;;;54.25;42.25;;;;;12.55;63.12;101408.59;5059335;28;45447;-84
2022/03/04 06:14:50;;;;;;;;;51.25;40.75;;;;;12.40;63.40;101382.47;5079704;28;45338;-84
2022/03/04 06:17:16;;;;;;;;;51.25;40.75;;;;;12.33;62.86;101378.31;5069510;28;45546;-84
2022/03/04 06:19:42;;;;;;;;;40.50;36.50;;;;;12.25;62.90;101360.78;5069997;28;45402;-84
2022/03/04 06:22:07;;;;;;;;;51.75;40.75;;;;;12.35;62.71;101376.47;5063399;28;46221;-84
2022/03/04 06:24:32;;;;;;;;;50.00;40.00;;;;;12.40;63.03;101382.47;5057614;28;45465;-83
2022/03/04 06:26:58;;;;;;;;;44.75;37.75;;;;;12.41;62.90;101379.75;5072010;28;45277;-83
2022/03/04 06:29:23;;;;;;;;;51.25;39.00;;;;;12.58;62.92;101413.81;5043786;28;45587;-83
2022/03/04 06:31:49;;;;;;;;;55.50;45.00;;;;;12.60;63.18;101403.06;5072852;28;45657;-83
2022/03/04 06:34:14;;;;;;;;;50.50;41.75;;;;;12.70;62.87;101423.13;5060014;28;45236;-83
2022/03/04 06:36:40;;;;;;;;;53.00;41.50;;;;;12.73;62.38;101431.00;5076641;28;45250;-83
2022/03/04 06:39:06;;;;;;;;;48.50;41.50;;;;;12.38;62.53;101365.63;5061133;28;45311;-83
2022/03/04 06:41:31;;;;;;;;;52.00;41.50;;;;;12.60;62.54;101413.75;5067050;28;45393;-83
2022/03/04 06:43:56;;;;;;;;;48.75;41.25;;;;;12.67;62.14;101432.16;5069143;28;45357;-83
2022/03/04 06:46:22;;;;;;;;;48.50;38.25;;;;;12.74;62.25;101445.28;5057371;28;45204;-84
2022/03/04 06:48:47;;;;;;;;;52.50;42.25;;;;;12.61;62.47;101435.06;5078760;28;45395;-86
2022/03/04 06:51:13;;;;;;;;;52.75;43.50;;;;;12.57;62.15;101430.81;5077756;28;46179;-87
2022/03/04 06:53:38;;;;;;;;;51.50;42.25;;;;;12.71;62.35;101451.59;5071469;28;45459;-87
2022/03/04 06:56:04;;;;;;;;;53.50;44.75;;;;;12.59;62.14;101433.41;5074857;28;45557;-87
2022/03/04 06:58:29;;;;;;;;;48.25;40.00;;;;;12.75;62.16;101466.59;5042996;28;45703;-87
2022/03/04 07:00:55;;;;;;;;;50.25;41.50;;;;;12.79;62.14;101473.56;5071907;28;48461;-87
2022/03/04 07:03:23;;;;;;;;;48.75;39.75;;;;;12.44;61.79;101413.50;5049631;28;45592;-87
2022/03/04 07:05:48;;;;;;;;;148.00;132.33;;;;;12.82;62.14;101475.25;5066192;28;45302;-86
2022/03/04 07:08:14;;;;;;;;;85.25;66.75;;;;;12.82;62.15;101473.44;5072599;28;45210;-88
2022/03/04 07:10:43;;;;;;;;;52.50;45.00;;;;;12.70;62.40;101452.53;5075162;28;45208;-88
2022/03/04 07:13:12;;;;;;;;;52.25;41.25;;;;;12.76;62.26;101460.34;5063650;28;45657;-88
2022/03/04 07:15:38;;;;;;;;;52.50;40.00;;;;;12.74;61.92;101461.34;5075024;28;45407;-87
2022/03/04 07:18:04;;;;;;;;;51.75;42.50;;;;;12.62;61.69;101442.19;5062944;28;45277;-87
2022/03/04 07:20:29;;;;;;;;;50.25;40.50;;;;;12.90;61.84;101483.84;5078002;27;45438;-86
2022/03/04 07:22:55;;;;;;;;;45.25;39.50;;;;;12.54;61.70;101425.56;5078486;28;45283;-86
2022/03/04 07:25:20;;;;;;;;;48.25;39.50;;;;;12.70;61.48;101454.34;5077257;27;45603;-87
2022/03/04 07:27:46;;;;;;;;;53.75;43.00;;;;;12.86;61.41;101490.25;5059966;28;45590;-87
2022/03/04 07:30:14;;;;;;;;;39.00;32.00;;;;;12.63;61.45;101448.38;5071578;28;46086;-86
2022/03/04 07:32:41;;;;;;;;;50.75;42.50;;;;;12.92;61.69;101498.00;5067604;28;45503;-86
2022/03/04 07:35:08;;;;;;;;;56.75;46.00;;;;;12.85;61.34;101484.03;5072115;28;45405;-86
2022/03/04 07:37:38;;;;;;;;;54.25;42.25;;;;;12.68;61.28;101451.75;5078701;27;45474;-87
2022/03/04 07:40:05;;;;;;;;;51.00;43.50;;;;;12.77;61.27;101458.53;5071761;28;45449;-87
2022/03/04 07:42:31;;;;;;;;;54.00;43.00;;;;;12.86;61.47;101480.41;5078345;28;45343;-87
2022/03/04 07:44:57;;;;;;;;;51.50;42.00;;;;;13.01;61.35;101500.28;5078185;28;45345;-88
2022/03/04 07:47:22;;;;;;;;;57.00;43.75;;;;;12.79;61.23;101470.91;5078446;27;45532;-82
2022/03/04 07:49:48;;;;;;;;;51.25;41.25;;;;;12.64;61.30;101442.09;5077150;27;45429;-84
2022/03/04 07:52:13;;;;;;;;;52.00;42.00;;;;;12.87;61.05;101486.63;5086522;27;45549;-81
2022/03/04 07:54:39;;;;;;;;;54.25;44.75;;;;;12.91;60.95;101484.69;5073805;28;45337;-81
2022/03/04 07:57:04;;;;;;;;;52.50;42.25;;;;;12.85;60.96;101467.97;5067027;28;45504;-86
2022/03/04 07:59:30;;;;;;;;;52.50;43.25;;;;;13.18;61.26;101510.31;5062720;28;47215;-85
2022/03/04 08:01:55;;;;;;;;;55.00;44.75;;;;;12.40;61.16;101372.66;5066674;28;45325;-85
2022/03/04 08:04:21;;;;;;;;;52.25;43.00;;;;;12.64;61.30;101415.34;5056916;28;45564;-85
2022/03/04 08:06:46;;;;;;;;;55.00;45.00;;;;;13.25;60.79;101500.19;5061847;28;45547;-84
2022/03/04 08:09:11;;;;;;;;;57.25;45.25;;;;;12.67;60.67;101393.84;5061985;28;46459;-86
2022/03/04 08:11:37;;;;;;;;;58.75;46.50;;;;;13.02;61.28;101443.19;5074106;28;45424;-86
2022/03/04 08:14:02;;;;;;;;;59.75;45.75;;;;;13.29;60.53;101472.38;5072252;28;45689;-85
2022/03/04 08:16:29;;;;;;;;;55.25;44.50;;;;;13.06;60.53;101433.19;5055004;28;45696;-86
2022/03/04 08:18:56;;;;;;;;;53.75;41.25;;;;;13.56;60.50;101525.69;5053602;28;47361;-85
2022/03/04 08:21:23;;;;;;;;;54.50;44.25;;;;;13.41;60.43;101528.09;5065098;28;45467;-83
2022/03/04 08:23:49;;;;;;;;;71.00;55.25;;;;;12.82;61.75;101488.63;5038696;28;45320;-84
2022/03/04 08:26:14;;;;;;;;;60.25;49.75;;;;;12.36;62.77;101437.00;5063892;28;45415;-85
2022/03/04 08:28:39;;;;;;;;;59.50;46.50;;;;;12.40;62.31;101420.78;5044872;28;47215;-85
2022/03/04 08:31:11;;;;;;;;;63.75;49.75;;;;;12.85;61.89;101462.63;5076721;28;45382;-85
2022/03/04 08:33:45;;;;;;;;;50.50;44.50;;;;;13.37;61.56;101537.22;5076795;28;45435;-85
2022/03/04 08:36:11;;;;;;;;;57.50;44.75;;;;;13.27;61.05;101499.25;5025489;28;45439;-86
2022/03/04 08:38:37;;;;;;;;;53.75;43.75;;;;;13.24;60.81;101482.41;4972855;28;45492;-85
2022/03/04 08:41:03;;;;;;;;;58.50;46.00;;;;;12.98;61.03;101448.72;5024907;28;45458;-84
2022/03/04 08:43:28;;;;;;;;;57.75;46.50;;;;;13.39;60.98;101505.00;5050036;28;45470;-84
2022/03/04 08:45:54;;;;;;;;;60.00;47.25;;;;;13.47;61.04;101511.75;5012385;28;45395;-85
2022/03/04 08:48:19;;;;;;;;;58.75;47.25;;;;;13.01;60.71;101428.03;4968170;28;45323;-85
2022/03/04 08:50:44;;;;;;;;;55.00;44.00;;;;;12.99;60.13;101405.81;5052499;28;45475;-84
2022/03/04 08:53:10;;;;;;;;;51.25;41.50;;;;;13.23;60.63;101444.06;4996154;28;45631;-85
2022/03/04 08:55:36;;;;;;;;;54.50;43.75;;;;;13.54;60.40;101487.41;5032452;28;45422;-85
2022/03/04 08:58:01;;;;;;;;;60.00;45.75;;;;;13.73;60.20;101524.00;5030490;28;46195;-85
2022/03/04 09:00:28;;;;;;;;;55.00;43.50;;;;;13.03;60.17;101403.91;5045464;28;45896;-85
2022/03/04 09:02:54;;;;;;;;;53.00;42.50;;;;;13.72;60.32;101524.97;5002007;28;45712;-83
2022/03/04 09:05:19;;;;;;;;;60.75;43.75;;;;;13.41;59.72;101458.47;5055869;28;45678;-87
2022/03/04 09:07:45;;;;;;;;;50.25;40.50;;;;;13.29;60.21;101417.03;4977713;28;46119;-86
2022/03/04 09:10:11;;;;;;;;;53.00;43.00;;;;;13.98;59.68;101511.28;5025104;28;45570;-86
2022/03/04 09:12:37;;;;;;;;;59.75;46.00;;;;;14.11;59.55;101540.16;4995902;28;45413;-87
2022/03/04 09:15:04;;;;;;;;;62.50;49.50;;;;;13.83;59.22;101486.09;5004715;28;45606;-87
2022/03/04 09:17:30;;;;;;;;;60.75;47.75;;;;;13.92;59.37;101507.09;4988086;28;45280;-89
2022/03/04 09:19:55;;;;;;;;;51.50;42.00;;;;;13.88;59.14;101481.38;5058806;28;45602;-81
2022/03/04 09:22:20;;;;;;;;;57.00;44.25;;;;;14.26;58.96;101541.28;5056576;28;46591;-80
2022/03/04 09:24:46;;;;;;;;;53.50;44.00;;;;;14.22;58.73;101517.38;5042951;28;45481;-80
2022/03/04 09:27:11;;;;;;;;;51.75;41.25;;;;;14.26;58.35;101518.97;4962847;28;45823;-78
2022/03/04 09:29:36;;;;;;;;;51.25;41.25;;;;;13.82;57.89;101442.34;4994747;28;46560;-81
2022/03/04 09:32:02;;;;;;;;;49.50;41.75;;;;;14.45;58.22;101546.66;4966084;28;45560;-79
2022/03/04 09:34:28;;;;;;;;;44.25;37.25;;;;;14.18;57.96;101489.81;5010045;28;45573;-83
2022/03/04 09:36:53;;;;;;;;;54.25;43.50;;;;;14.28;57.87;101495.59;5030237;28;46387;-82
2022/03/04 09:39:18;;;;;;;;;50.25;40.50;;;;;14.51;57.84;101527.56;5059603;28;45413;-82
2022/03/04 09:41:45;;;;;;;;;51.50;39.75;;;;;14.28;57.67;101487.56;5059370;28;45440;-81
2022/03/04 09:44:15;;;;;;;;;53.00;43.25;;;;;14.59;57.89;101538.00;5068775;28;45424;-81
2022/03/04 09:46:41;;;;;;;;;56.25;41.50;;;;;14.52;57.95;101529.31;5083764;27;48409;-79
2022/03/04 09:49:08;;;;;;;;;135.33;112.33;;;;;14.61;57.76;101545.94;5026542;28;45587;-80
2022/03/04 09:51:34;;;;;;;;;53.75;41.50;;;;;14.52;58.00;101528.47;5054044;28;45386;-80
2022/03/04 09:54:00;;;;;;;;;51.00;41.50;;;;;14.52;58.33;101534.69;5035255;28;45744;-80
2022/03/04 09:56:26;;;;;;;;;60.75;44.25;;;;;14.56;57.93;101546.16;5029680;28;45583;-82
2022/03/04 09:58:51;;;;;;;;;55.50;44.00;;;;;14.59;57.88;101543.34;5012293;28;45485;-80
2022/03/04 10:01:17;;;;;;;;;54.25;42.25;;;;;14.24;57.56;101494.03;5014784;28;45975;-79
2022/03/04 10:03:44;;;;;;;;;59.25;43.75;;;;;14.50;57.69;101535.72;4978886;28;45868;-79
2022/03/04 10:06:10;;;;;;;;;54.75;43.00;;;;;14.61;57.29;101544.16;5013864;28;46340;-80
2022/03/04 10:08:54;;;;;;;;;51.25;40.25;;;;;14.36;57.32;101497.00;5031088;28;45368;-79
2022/03/04 10:11:30;;;;;;;;;56.00;42.50;;;;;14.63;57.32;101541.38;5069528;28;45462;-80
2022/03/04 10:13:59;;;;;;;;;53.50;39.00;;;;;14.43;57.06;101502.06;5051502;28;45424;-80
2022/03/04 10:16:29;;;;;;;;;44.50;37.50;;;;;14.50;57.35;101523.16;5032212;28;46607;-80
2022/03/04 10:19:04;;;;;;;;;54.00;42.00;;;;;14.52;57.38;101517.72;5042103;28;45668;-81
2022/03/04 10:21:45;;;;;;;;;53.50;43.00;;;;;14.69;57.43;101544.66;5052579;27;45488;-80
2022/03/04 10:24:11;;;;;;;;;53.50;42.75;;;;;14.59;57.61;101529.06;5052348;28;45562;-79
2022/03/04 10:26:36;;;;;;;;;55.50;42.50;;;;;14.74;57.63;101552.47;4977766;28;45924;-79
2022/03/04 10:29:16;;;;;;;;;57.50;44.75;;;;;14.74;57.47;101555.16;5003610;28;45591;-79
2022/03/04 10:32:15;;;;;;;;;51.25;41.25;;;;;14.76;56.92;101555.97;5040059;28;45426;-79
2022/03/04 10:34:50;;;;;;;;;52.00;40.25;;;;;14.78;56.89;101554.94;5022348;28;45517;-79
2022/03/04 10:37:39;;;;;;;;;52.75;42.50;;;;;14.62;56.86;101524.41;5017856;28;46313;-79
2022/03/04 10:40:06;;;;;;;;;53.50;42.00;;;;;14.78;56.94;101552.25;5028809;28;45472;-79
2022/03/04 10:42:41;;;;;;;;;53.75;42.25;;;;;14.74;56.78;101539.91;5050868;28;45757;-79
2022/03/04 10:45:12;;;;;;;;;51.50;41.00;;;;;14.85;56.82;101558.19;5053097;28;45464;-80
2022/03/04 10:47:44;;;;;;;;;46.25;38.75;;;;;14.62;56.54;101513.69;4995594;28;45437;-78
2022/03/04 10:50:12;;;;;;;;;40.75;37.25;;;;;14.83;56.35;101543.97;5050027;27;45861;-79
2022/03/04 10:53:00;;;;;;;;;42.50;36.75;;;;;14.91;56.31;101548.97;5051259;28;45694;-79
2022/03/04 10:55:29;;;;;;;;;44.00;37.75;;;;;14.91;56.45;101551.66;5054967;28;45824;-79
2022/03/04 10:57:55;;;;;;;;;36.50;32.25;;;;;14.99;56.55;101547.66;5035569;28;45503;-79
2022/03/04 11:00:32;;;;;;;;;54.25;43.00;;;;;14.96;56.13;101539.75;5017096;28;45429;-79
2022/03/04 11:02:59;;;;;;;;;48.25;39.25;;;;;15.02;56.26;101540.41;5011303;28;45458;-79
2022/03/04 11:05:24;;;;;;;;;40.50;34.00;;;;;14.96;55.88;101520.97;5029747;28;45768;-79
2022/03/04 11:07:50;;;;;;;;;44.00;38.00;;;;;14.91;55.49;101506.91;5045422;28;48212;-79